Rainford, United Kingdom
Current Conditions -  °F | °C
As of 3:50 PM on Thursday 30 Oct 2014 (Local Time) from EGGP Reporting Station
Broken Clouds Broken Clouds  
Wind Chill: 61°   Ceiling: 4300
Heat Index: 61°   Visibility: 6mi
Dew Point: 57°   Wind: 6mph
Humidity: 88%   Direction: 170°S
Pressure: 29.94"   Gusts: NA
Location:  53.5°N, 2.79°W
Report Text: EGGP 301550Z 17005KT 110V210 9999 FEW020 BKN043 16/14 Q1014
Loading
Personal Weather Stations






























Interactive Weather Map
Tropical Storm Tracking
New forecast layout! Learn more

10-Day Weather Forecast

Advertisements
Track Severe Weather on mobile